createdAt,value
2018-05-21T00:01:15.585Z,100.00
2018-05-21T00:03:43.182Z,100.00
2018-05-21T00:06:10.859Z,100.00
2018-05-21T00:08:38.530Z,99.42
2018-05-21T00:11:06.327Z,99.19
2018-05-21T00:13:33.945Z,99.29
2018-05-21T00:16:01.790Z,99.23
2018-05-21T00:18:29.506Z,99.02
2018-05-21T00:20:57.143Z,99.08
2018-05-21T00:23:24.792Z,99.29
2018-05-21T00:25:52.455Z,99.36
2018-05-21T00:28:20.150Z,100.00
2018-05-21T00:30:47.778Z,100.00
2018-05-21T00:33:15.377Z,100.00
2018-05-21T00:35:43.018Z,100.00
2018-05-21T00:38:10.749Z,100.00
2018-05-21T00:40:38.339Z,100.00
2018-05-21T00:43:06.087Z,100.00
2018-05-21T00:45:33.682Z,100.00
2018-05-21T00:48:01.286Z,100.00
2018-05-21T00:50:28.907Z,100.00
2018-05-21T00:52:56.499Z,100.00
2018-05-21T00:55:35.874Z,100.00
2018-05-21T00:58:03.465Z,100.00
2018-05-21T01:00:31.190Z,100.00
2018-05-21T01:02:58.823Z,100.00
2018-05-21T01:05:26.434Z,100.00
2018-05-21T01:07:54.026Z,100.00
2018-05-21T01:10:21.661Z,100.00
2018-05-21T01:12:49.252Z,100.00
2018-05-21T01:15:16.844Z,100.00
2018-05-21T01:17:44.466Z,100.00
2018-05-21T01:20:12.879Z,100.00
2018-05-21T01:22:40.587Z,100.00
2018-05-21T01:25:08.233Z,100.00
2018-05-21T01:27:35.831Z,100.00
2018-05-21T01:30:03.439Z,100.00
2018-05-21T01:32:31.072Z,100.00
2018-05-21T01:34:58.655Z,100.00
2018-05-21T01:37:26.245Z,100.00
2018-05-21T01:39:53.888Z,100.00
2018-05-21T01:42:21.494Z,100.00
2018-05-21T01:44:49.089Z,100.00
2018-05-21T01:47:16.731Z,100.00
2018-05-21T01:49:44.326Z,100.00
2018-05-21T01:52:11.925Z,100.00
2018-05-21T01:54:39.754Z,100.00
2018-05-21T01:57:07.340Z,100.00
2018-05-21T01:59:34.951Z,100.00
2018-05-21T02:02:02.681Z,100.00
2018-05-21T02:04:30.284Z,100.00
2018-05-21T02:06:57.874Z,100.00
2018-05-21T02:09:25.496Z,100.00
2018-05-21T02:11:53.089Z,100.00
2018-05-21T02:14:20.680Z,100.00
2018-05-21T02:16:48.342Z,100.00
2018-05-21T02:19:16.185Z,100.00
2018-05-21T02:21:43.838Z,100.00
2018-05-21T02:24:11.467Z,100.00
2018-05-21T02:26:39.156Z,100.00
2018-05-21T02:29:07.029Z,100.00
2018-05-21T02:31:34.660Z,100.00
2018-05-21T02:34:02.275Z,100.00
2018-05-21T02:36:29.876Z,100.00
2018-05-21T02:38:57.513Z,100.00
2018-05-21T02:41:25.102Z,100.00
2018-05-21T02:43:52.688Z,100.00
2018-05-21T02:46:20.324Z,100.00
2018-05-21T02:48:48.115Z,100.00
2018-05-21T02:51:15.706Z,100.00
2018-05-21T02:53:43.363Z,100.00
2018-05-21T02:56:10.972Z,100.00
2018-05-21T02:58:38.567Z,100.00
2018-05-21T03:01:06.211Z,100.00
2018-05-21T03:03:33.813Z,100.00
2018-05-21T03:06:01.417Z,100.00
2018-05-21T03:08:29.209Z,100.00
2018-05-21T03:10:56.872Z,100.00
2018-05-21T03:13:24.468Z,100.00
2018-05-21T03:15:52.121Z,100.00
2018-05-21T03:18:19.713Z,100.00
2018-05-21T03:20:47.523Z,100.00
2018-05-21T03:23:15.159Z,100.00
2018-05-21T03:25:42.756Z,100.00
2018-05-21T03:28:10.388Z,100.00
2018-05-21T03:30:38.058Z,99.51
2018-05-21T03:33:05.667Z,99.07
2018-05-21T03:35:33.259Z,98.42
2018-05-21T03:38:00.958Z,97.02
2018-05-21T03:40:28.617Z,95.76
2018-05-21T03:42:56.335Z,89.49
2018-05-21T03:45:24.202Z,81.32
2018-05-21T03:47:51.944Z,74.45
2018-05-21T03:50:19.668Z,68.58
2018-05-21T03:52:47.323Z,64.26
2018-05-21T03:55:14.995Z,60.18
2018-05-21T03:57:42.597Z,57.26
2018-05-21T04:00:22.002Z,55.10
2018-05-21T04:03:03.078Z,51.03
2018-05-21T04:05:30.771Z,50.07
2018-05-21T04:07:58.348Z,49.89
2018-05-21T04:10:25.911Z,50.71
2018-05-21T04:12:53.553Z,51.01
2018-05-21T04:15:21.270Z,50.53
2018-05-21T04:17:48.848Z,50.31
2018-05-21T04:20:16.476Z,48.83
2018-05-21T04:22:44.070Z,50.80
2018-05-21T04:25:11.645Z,50.86
2018-05-21T04:27:39.258Z,49.26
2018-05-21T04:30:06.839Z,49.14
2018-05-21T04:32:34.418Z,46.49
2018-05-21T04:35:02.041Z,44.67
2018-05-21T04:37:29.632Z,45.94
2018-05-21T04:39:57.237Z,43.49
2018-05-21T04:42:24.927Z,42.19
2018-05-21T04:44:52.525Z,41.93
2018-05-21T04:47:20.107Z,42.22
2018-05-21T04:49:47.736Z,44.45
2018-05-21T04:52:15.506Z,42.71
2018-05-21T04:54:43.140Z,40.55
2018-05-21T04:57:10.827Z,39.16
2018-05-21T04:59:38.418Z,38.85
2018-05-21T05:02:06.024Z,39.99
2018-05-21T05:04:33.628Z,39.76
2018-05-21T05:07:01.272Z,41.14
2018-05-21T05:09:28.849Z,38.33
2018-05-21T05:11:56.492Z,38.25
2018-05-21T05:14:30.020Z,36.07
2018-05-21T05:16:57.655Z,33.46
2018-05-21T05:19:25.239Z,33.74
2018-05-21T05:21:52.804Z,34.04
2018-05-21T05:24:20.438Z,34.75
2018-05-21T05:26:48.102Z,34.60
2018-05-21T05:29:15.684Z,33.30
2018-05-21T05:31:43.308Z,31.32
2018-05-21T05:34:11.084Z,31.15
2018-05-21T05:36:38.659Z,31.79
2018-05-21T05:39:06.404Z,32.20
2018-05-21T05:41:34.063Z,29.52
2018-05-21T05:44:01.924Z,31.18
2018-05-21T05:46:29.533Z,29.78
2018-05-21T05:48:57.163Z,29.57
2018-05-21T05:51:24.921Z,29.05
2018-05-21T05:53:52.528Z,27.47
2018-05-21T05:56:20.097Z,28.08
2018-05-21T05:58:47.684Z,28.31
2018-05-21T06:01:15.367Z,29.17
2018-05-21T06:03:43.037Z,28.33
2018-05-21T06:06:10.686Z,28.42
2018-05-21T06:08:38.340Z,30.86
2018-05-21T06:11:05.920Z,30.20
2018-05-21T06:13:33.685Z,30.01
2018-05-21T06:16:01.402Z,29.61
2018-05-21T06:18:29.011Z,30.52
2018-05-21T06:20:56.660Z,30.09
2018-05-21T06:23:24.319Z,28.25
2018-05-21T06:25:52.086Z,27.94
2018-05-21T06:28:19.808Z,27.22
2018-05-21T06:30:47.526Z,26.46
2018-05-21T06:33:15.106Z,27.79
2018-05-21T06:35:42.696Z,28.28
2018-05-21T06:38:10.715Z,27.19
2018-05-21T06:40:38.313Z,26.91
2018-05-21T06:43:06.146Z,28.42
2018-05-21T06:45:33.893Z,25.73
2018-05-21T06:48:01.556Z,24.74
2018-05-21T06:50:29.143Z,25.47
2018-05-21T06:52:56.761Z,25.71
2018-05-21T06:55:24.600Z,27.11
2018-05-21T06:57:52.221Z,27.80
2018-05-21T07:00:19.869Z,26.90
2018-05-21T07:02:47.533Z,28.28
2018-05-21T07:05:15.197Z,27.83
2018-05-21T07:07:42.828Z,29.15
2018-05-21T07:10:10.515Z,28.78
2018-05-21T07:12:38.105Z,27.38
2018-05-21T07:15:05.843Z,26.72
2018-05-21T07:17:33.439Z,28.21
2018-05-21T07:20:01.166Z,29.39
2018-05-21T07:22:28.837Z,30.32
2018-05-21T07:24:56.491Z,26.97
2018-05-21T07:27:24.091Z,27.11
2018-05-21T07:29:51.844Z,26.12
2018-05-21T07:32:19.498Z,26.94
2018-05-21T07:34:47.145Z,29.42
2018-05-21T07:37:14.772Z,28.57
2018-05-21T07:39:42.460Z,27.82
2018-05-21T07:42:10.048Z,27.94
2018-05-21T07:44:37.793Z,29.42
2018-05-21T07:47:05.465Z,30.95
2018-05-21T07:49:33.111Z,30.82
2018-05-21T07:52:00.736Z,29.42
2018-05-21T07:54:28.328Z,28.46
2018-05-21T07:56:55.909Z,26.09
2018-05-21T07:59:23.579Z,26.21
2018-05-21T08:01:51.223Z,26.47
2018-05-21T08:04:18.882Z,27.67
2018-05-21T08:06:46.561Z,27.26
2018-05-21T08:09:14.220Z,28.25
2018-05-21T08:11:41.807Z,29.83
2018-05-21T08:14:09.531Z,30.25
2018-05-21T08:16:37.111Z,30.70
2018-05-21T08:19:04.696Z,31.17
2018-05-21T08:21:32.335Z,29.82
2018-05-21T08:23:59.990Z,29.46
2018-05-21T08:26:27.655Z,31.98
2018-05-21T08:28:55.329Z,32.79
2018-05-21T08:31:22.934Z,30.91
2018-05-21T08:33:50.511Z,32.04
2018-05-21T08:36:18.284Z,33.05
2018-05-21T08:38:45.953Z,34.73
2018-05-21T08:41:13.540Z,34.37
2018-05-21T08:43:41.464Z,32.89
2018-05-21T08:46:09.051Z,34.62
2018-05-21T08:48:36.652Z,34.78
2018-05-21T08:51:04.279Z,34.73
2018-05-21T08:53:31.899Z,36.02
2018-05-21T08:55:59.483Z,37.18
2018-05-21T08:58:27.261Z,35.08
2018-05-21T09:00:54.847Z,32.85
2018-05-21T09:03:22.438Z,33.95
2018-05-21T09:05:50.068Z,34.63
2018-05-21T09:08:17.648Z,31.62
2018-05-21T09:10:45.224Z,31.83
2018-05-21T09:13:12.834Z,34.07
2018-05-21T09:15:40.488Z,33.77
2018-05-21T09:18:08.092Z,30.21
2018-05-21T09:20:35.700Z,30.49
2018-05-21T09:23:03.277Z,31.79
2018-05-21T09:25:30.844Z,33.05
2018-05-21T09:27:58.612Z,31.07
2018-05-21T09:30:26.196Z,28.75
2018-05-21T09:32:53.911Z,28.92
2018-05-21T09:35:21.545Z,27.78
2018-05-21T09:37:49.125Z,27.05
2018-05-21T09:40:16.711Z,26.01
2018-05-21T09:42:44.305Z,27.76
2018-05-21T09:45:12.025Z,28.32
2018-05-21T09:47:40.472Z,28.58
2018-05-21T09:50:08.144Z,31.01
2018-05-21T09:52:35.723Z,30.80
2018-05-21T09:55:03.306Z,31.73
2018-05-21T09:57:30.915Z,32.20
2018-05-21T09:59:58.490Z,31.49
2018-05-21T10:02:26.054Z,27.64
2018-05-21T10:04:53.668Z,27.85
2018-05-21T10:07:21.248Z,30.59
2018-05-21T10:09:48.853Z,33.43
2018-05-21T10:12:16.468Z,34.83
2018-05-21T10:14:44.181Z,35.51
2018-05-21T10:17:11.756Z,33.31
2018-05-21T10:19:39.374Z,30.73
2018-05-21T10:22:07.138Z,31.54
2018-05-21T10:24:34.812Z,31.28
2018-05-21T10:27:02.451Z,28.67
2018-05-21T10:29:30.031Z,28.98
2018-05-21T10:31:57.608Z,28.19
2018-05-21T10:34:25.212Z,27.20
2018-05-21T10:36:52.783Z,30.12
2018-05-21T10:39:20.414Z,30.66
2018-05-21T10:41:48.140Z,32.83
2018-05-21T10:44:15.707Z,33.48
2018-05-21T10:46:43.292Z,34.41
2018-05-21T10:49:10.903Z,35.59
2018-05-21T10:51:38.513Z,36.48
2018-05-21T10:54:06.262Z,39.60
2018-05-21T10:56:33.866Z,42.34
2018-05-21T10:59:01.474Z,43.58
2018-05-21T11:01:29.058Z,44.77
2018-05-21T11:03:56.712Z,44.99
2018-05-21T11:06:24.301Z,45.08
2018-05-21T11:08:51.901Z,44.63
2018-05-21T11:11:19.520Z,45.08
2018-05-21T11:13:47.128Z,45.71
2018-05-21T11:16:14.711Z,46.20
2018-05-21T11:18:42.363Z,47.72
2018-05-21T11:21:09.938Z,49.84
2018-05-21T11:23:37.595Z,49.92
2018-05-21T11:26:05.251Z,52.10
2018-05-21T11:28:32.847Z,52.79
2018-05-21T11:31:00.505Z,53.84
2018-05-21T11:33:28.082Z,53.79
2018-05-21T11:35:55.688Z,53.97
2018-05-21T11:38:23.268Z,55.05
2018-05-21T11:40:50.898Z,56.04
2018-05-21T11:43:18.484Z,54.89
2018-05-21T11:45:46.063Z,53.85
2018-05-21T11:48:13.679Z,54.60
2018-05-21T11:50:41.268Z,52.87
2018-05-21T11:53:08.927Z,52.84
2018-05-21T11:55:36.721Z,51.53
2018-05-21T11:58:04.317Z,51.53
2018-05-21T12:00:31.875Z,48.72
2018-05-21T12:02:59.472Z,44.84
2018-05-21T12:05:27.056Z,43.26
2018-05-21T12:07:54.633Z,40.43
2018-05-21T12:10:22.255Z,40.17
2018-05-21T12:12:49.834Z,40.51
2018-05-21T12:15:17.581Z,38.14
2018-05-21T12:17:45.205Z,39.07
2018-05-21T12:20:12.812Z,38.80
2018-05-21T12:22:40.381Z,38.71
2018-05-21T12:25:08.016Z,35.95
2018-05-21T12:27:35.861Z,35.28
2018-05-21T12:30:03.473Z,32.91
2018-05-21T12:32:31.096Z,30.90
2018-05-21T12:34:58.684Z,31.68
2018-05-21T12:37:26.274Z,34.10
2018-05-21T12:39:53.947Z,36.09
2018-05-21T12:42:21.527Z,39.03
2018-05-21T12:44:49.116Z,37.78
2018-05-21T12:47:16.755Z,38.49
2018-05-21T12:49:44.341Z,38.84
2018-05-21T12:52:11.926Z,38.88
2018-05-21T12:54:39.600Z,37.09
2018-05-21T12:57:07.143Z,37.30
2018-05-21T12:59:34.729Z,37.52
2018-05-21T13:02:02.343Z,38.06
2018-05-21T13:04:29.937Z,38.07
2018-05-21T13:06:57.530Z,38.04
2018-05-21T13:09:25.129Z,39.25
2018-05-21T13:11:52.717Z,39.34
2018-05-21T13:14:20.303Z,40.31
2018-05-21T13:16:47.915Z,39.79
2018-05-21T13:19:15.544Z,40.87
2018-05-21T13:21:43.132Z,41.12
2018-05-21T13:24:10.850Z,42.55
2018-05-21T13:26:38.367Z,43.31
2018-05-21T13:29:05.913Z,43.95
2018-05-21T13:31:33.517Z,45.74
2018-05-21T13:34:01.099Z,44.35
2018-05-21T13:36:28.670Z,44.50
2018-05-21T13:38:56.273Z,43.61
2018-05-21T13:41:23.855Z,43.28
2018-05-21T13:43:51.430Z,44.48
2018-05-21T13:46:19.035Z,45.33
2018-05-21T13:48:46.611Z,43.06
2018-05-21T13:51:14.204Z,44.23
2018-05-21T13:53:41.821Z,44.20
2018-05-21T13:56:09.391Z,44.30
2018-05-21T13:58:36.982Z,45.51
2018-05-21T14:01:04.683Z,45.77
2018-05-21T14:03:32.303Z,45.40
2018-05-21T14:05:59.874Z,45.39
2018-05-21T14:08:27.505Z,45.17
2018-05-21T14:10:55.092Z,45.97
2018-05-21T14:13:22.671Z,42.61
2018-05-21T14:15:50.323Z,43.88
2018-05-21T14:18:17.908Z,43.95
2018-05-21T14:20:45.501Z,45.01
2018-05-21T14:23:13.122Z,44.46
2018-05-21T14:25:40.694Z,43.93
2018-05-21T14:28:08.281Z,43.65
2018-05-21T14:30:35.931Z,43.77
2018-05-21T14:33:03.557Z,44.67
2018-05-21T14:35:31.109Z,44.36
2018-05-21T14:37:59.024Z,44.34
2018-05-21T14:40:26.656Z,45.42
2018-05-21T14:42:54.235Z,44.11
2018-05-21T14:45:22.008Z,45.10
2018-05-21T14:47:49.586Z,46.35
2018-05-21T14:50:17.162Z,47.76
2018-05-21T14:52:44.788Z,49.53
2018-05-21T14:55:12.360Z,52.24
2018-05-21T14:57:39.929Z,55.87
2018-05-21T15:00:07.533Z,58.64
2018-05-21T15:02:35.111Z,65.77
2018-05-21T15:05:02.672Z,69.90
2018-05-21T15:07:30.308Z,73.52
2018-05-21T15:09:58.001Z,78.68
2018-05-21T15:12:25.890Z,82.44
2018-05-21T15:14:53.546Z,84.22
2018-05-21T15:17:21.109Z,83.78
2018-05-21T15:19:48.670Z,85.67
2018-05-21T15:22:16.345Z,87.34
2018-05-21T15:24:43.873Z,87.10
2018-05-21T15:27:11.442Z,86.93
2018-05-21T15:29:39.102Z,85.50
2018-05-21T15:32:06.713Z,84.28
2018-05-21T15:34:34.291Z,81.75
2018-05-21T15:37:01.889Z,78.06
2018-05-21T15:39:29.525Z,79.55
2018-05-21T15:41:57.088Z,79.23
2018-05-21T15:44:24.985Z,81.65
2018-05-21T15:46:52.557Z,81.81
2018-05-21T15:49:20.153Z,83.34
2018-05-21T15:51:47.954Z,82.42
2018-05-21T15:54:15.556Z,81.67
2018-05-21T15:56:43.391Z,81.45
2018-05-21T15:59:10.993Z,80.23
2018-05-21T16:01:38.572Z,80.29
2018-05-21T16:04:06.177Z,80.63
2018-05-21T16:06:33.784Z,80.47
2018-05-21T16:09:01.386Z,82.58
2018-05-21T16:11:28.962Z,81.67
2018-05-21T16:13:56.563Z,82.66
2018-05-21T16:16:24.276Z,82.26
2018-05-21T16:18:51.990Z,82.33
2018-05-21T16:21:19.676Z,82.34
2018-05-21T16:23:47.243Z,79.96
2018-05-21T16:26:14.808Z,79.22
2018-05-21T16:28:42.453Z,79.16
2018-05-21T16:31:10.054Z,78.35
2018-05-21T16:33:37.646Z,79.43
2018-05-21T16:36:05.477Z,79.59
2018-05-21T16:38:33.137Z,78.08
2018-05-21T16:41:00.715Z,78.66
2018-05-21T16:43:28.316Z,79.50
2018-05-21T16:45:55.884Z,78.77
2018-05-21T16:48:23.447Z,78.18
2018-05-21T16:50:51.068Z,77.22
2018-05-21T16:53:18.692Z,77.83
2018-05-21T16:55:46.275Z,77.53
2018-05-21T16:58:13.856Z,77.19
2018-05-21T17:00:41.494Z,77.74
2018-05-21T17:03:09.089Z,77.78
2018-05-21T17:05:36.707Z,79.18
2018-05-21T17:08:04.326Z,80.41
2018-05-21T17:10:31.921Z,81.23
2018-05-21T17:12:59.511Z,81.59
2018-05-21T17:15:27.186Z,81.94
2018-05-21T17:17:54.740Z,82.38
2018-05-21T17:20:22.381Z,83.64
2018-05-21T17:22:50.155Z,83.89
2018-05-21T17:25:17.729Z,84.49
2018-05-21T17:27:45.293Z,85.22
2018-05-21T17:30:12.910Z,86.24
2018-05-21T17:32:40.490Z,87.36
2018-05-21T17:35:08.052Z,87.30
2018-05-21T17:37:35.648Z,88.37
2018-05-21T17:40:03.212Z,88.88
2018-05-21T17:42:30.818Z,88.80
2018-05-21T17:44:58.416Z,88.94
2018-05-21T17:47:25.988Z,89.40
2018-05-21T17:49:53.600Z,88.33
2018-05-21T17:52:21.215Z,89.16
2018-05-21T17:54:48.814Z,88.93
2018-05-21T17:57:16.465Z,89.06
2018-05-21T17:59:44.025Z,89.17
2018-05-21T18:02:11.582Z,89.38
2018-05-21T18:04:39.172Z,89.37
2018-05-21T18:07:06.782Z,89.61
2018-05-21T18:09:34.391Z,89.61
2018-05-21T18:12:01.988Z,89.46
2018-05-21T18:14:29.622Z,88.89
2018-05-21T18:16:57.210Z,88.70
2018-05-21T18:19:24.810Z,88.62
2018-05-21T18:21:52.431Z,88.10
2018-05-21T18:24:20.008Z,88.38
2018-05-21T18:26:47.626Z,88.41
2018-05-21T18:29:15.250Z,88.30
2018-05-21T18:31:42.874Z,87.54
2018-05-21T18:34:10.599Z,87.14
2018-05-21T18:36:38.215Z,87.02
2018-05-21T18:39:06.925Z,86.69
2018-05-21T18:41:34.485Z,86.77
2018-05-21T18:44:02.124Z,85.29
2018-05-21T18:46:29.733Z,86.40
2018-05-21T18:48:57.390Z,86.69
2018-05-21T18:51:25.030Z,86.34
2018-05-21T18:53:52.742Z,86.51
2018-05-21T18:56:20.332Z,85.42
2018-05-21T18:58:47.951Z,85.18
2018-05-21T19:01:15.540Z,83.32
2018-05-21T19:03:43.127Z,83.70
2018-05-21T19:06:10.857Z,83.11
2018-05-21T19:08:38.404Z,83.06
2018-05-21T19:11:05.987Z,82.65
2018-05-21T19:13:33.608Z,82.02
2018-05-21T19:16:01.183Z,82.10
2018-05-21T19:18:28.773Z,82.09
2018-05-21T19:20:56.385Z,81.91
2018-05-21T19:23:23.964Z,81.46
2018-05-21T19:25:51.547Z,81.87
2018-05-21T19:28:19.347Z,81.36
2018-05-21T19:30:46.933Z,82.05
2018-05-21T19:33:14.672Z,81.56
2018-05-21T19:35:42.266Z,81.28
2018-05-21T19:38:09.843Z,81.10
2018-05-21T19:40:37.577Z,81.52
2018-05-21T19:43:05.316Z,82.04
2018-05-21T19:45:33.170Z,82.29
2018-05-21T19:48:01.569Z,83.21
2018-05-21T19:50:29.188Z,82.99
2018-05-21T19:52:56.757Z,83.29
2018-05-21T19:55:24.342Z,83.72
2018-05-21T19:57:52.019Z,84.47
2018-05-21T20:00:19.613Z,84.74
2018-05-21T20:02:47.361Z,85.69
2018-05-21T20:05:15.209Z,85.90
2018-05-21T20:07:42.794Z,86.62
2018-05-21T20:10:10.549Z,86.92
2018-05-21T20:12:38.416Z,86.85
2018-05-21T20:15:05.987Z,87.18
2018-05-21T20:17:33.608Z,87.15
2018-05-21T20:20:01.213Z,86.32
2018-05-21T20:22:28.946Z,85.86
2018-05-21T20:24:56.622Z,85.99
2018-05-21T20:27:24.289Z,85.52
2018-05-21T20:29:52.027Z,86.11
2018-05-21T20:32:19.691Z,85.94
2018-05-21T20:34:47.357Z,86.39
2018-05-21T20:37:15.026Z,87.16
2018-05-21T20:39:42.649Z,87.68
2018-05-21T20:42:10.230Z,88.11
2018-05-21T20:44:37.784Z,88.74
2018-05-21T20:47:05.397Z,88.88
2018-05-21T20:49:32.949Z,89.14
2018-05-21T20:52:00.524Z,89.67
2018-05-21T20:54:28.239Z,89.91
2018-05-21T20:56:55.810Z,90.41
2018-05-21T20:59:23.558Z,90.51
2018-05-21T21:01:51.148Z,90.85
2018-05-21T21:04:18.881Z,90.87
2018-05-21T21:06:46.453Z,90.80
2018-05-21T21:09:14.076Z,91.11
2018-05-21T21:11:41.643Z,91.76
2018-05-21T21:14:09.212Z,92.21
2018-05-21T21:16:37.013Z,92.18
2018-05-21T21:19:04.878Z,92.42
2018-05-21T21:21:32.468Z,92.52
2018-05-21T21:24:00.125Z,92.76
2018-05-21T21:26:27.852Z,92.73
2018-05-21T21:28:55.737Z,92.36
2018-05-21T21:31:23.424Z,91.93
2018-05-21T21:33:51.262Z,92.47
2018-05-21T21:36:18.871Z,91.97
2018-05-21T21:38:46.447Z,92.00
2018-05-21T21:41:14.064Z,92.32
2018-05-21T21:43:41.904Z,92.04
2018-05-21T21:46:09.547Z,93.00
2018-05-21T21:48:37.240Z,93.27
2018-05-21T21:51:04.850Z,93.73
2018-05-21T21:53:32.564Z,93.77
2018-05-21T21:56:00.264Z,94.04
2018-05-21T21:58:28.035Z,93.85
2018-05-21T22:00:55.892Z,93.38
2018-05-21T22:03:23.471Z,93.16
2018-05-21T22:05:51.283Z,92.96
2018-05-21T22:08:18.946Z,93.65
2018-05-21T22:10:46.530Z,94.63
2018-05-21T22:13:14.252Z,94.49
2018-05-21T22:15:41.836Z,94.08
2018-05-21T22:18:09.578Z,93.80
2018-05-21T22:20:37.194Z,94.05
2018-05-21T22:23:04.901Z,94.12
2018-05-21T22:25:32.475Z,94.39
2018-05-21T22:28:00.096Z,94.58
2018-05-21T22:30:27.681Z,94.85
2018-05-21T22:32:55.256Z,94.12
2018-05-21T22:35:23.020Z,94.47
2018-05-21T22:37:50.676Z,94.61
2018-05-21T22:40:18.270Z,95.34
2018-05-21T22:42:47.086Z,95.11
2018-05-21T22:45:14.675Z,95.51
2018-05-21T22:47:42.262Z,96.02
2018-05-21T22:50:09.891Z,96.15
2018-05-21T22:52:37.679Z,96.40
2018-05-21T22:55:05.271Z,96.22
2018-05-21T22:57:32.999Z,96.04
2018-05-21T23:00:00.584Z,96.29
2018-05-21T23:02:28.154Z,96.26
2018-05-21T23:04:55.981Z,96.64
2018-05-21T23:07:23.564Z,96.25
2018-05-21T23:09:51.140Z,95.90
2018-05-21T23:12:18.757Z,96.83
2018-05-21T23:14:46.408Z,96.08
2018-05-21T23:17:14.074Z,95.17
2018-05-21T23:19:41.757Z,94.69
2018-05-21T23:22:12.500Z,93.53
2018-05-21T23:24:40.141Z,93.95
2018-05-21T23:27:07.757Z,94.32
2018-05-21T23:29:35.347Z,94.42
2018-05-21T23:32:02.932Z,95.14
2018-05-21T23:34:30.553Z,95.58
2018-05-21T23:36:58.142Z,96.18
2018-05-21T23:39:25.975Z,95.81
2018-05-21T23:41:53.591Z,95.61
2018-05-21T23:44:21.285Z,96.30
2018-05-21T23:46:48.917Z,97.06
2018-05-21T23:49:16.783Z,96.66
2018-05-21T23:51:44.359Z,97.12
2018-05-21T23:54:12.254Z,96.63
2018-05-21T23:56:40.094Z,96.93
2018-05-21T23:59:07.825Z,97.13
